sensor_id;sensor_type;location;lat;lon;timestamp;P1;durP1;ratioP1;P2;durP2;ratioP2
5416;SDS011;2731;50.754;12.990;2023-03-01T00:01:09;24.58;;;12.32;;
5416;SDS011;2731;50.754;12.990;2023-03-01T00:03:37;29.42;;;13.00;;
5416;SDS011;2731;50.754;12.990;2023-03-01T00:06:04;28.63;;;15.82;;
5416;SDS011;2731;50.754;12.990;2023-03-01T00:08:33;32.17;;;15.52;;
5416;SDS011;2731;50.754;12.990;2023-03-01T00:11:01;30.45;;;15.10;;
5416;SDS011;2731;50.754;12.990;2023-03-01T00:13:30;32.42;;;14.98;;
5416;SDS011;2731;50.754;12.990;2023-03-01T00:15:58;31.15;;;13.90;;
5416;SDS011;2731;50.754;12.990;2023-03-01T00:18:25;24.80;;;12.70;;
5416;SDS011;2731;50.754;12.990;2023-03-01T00:20:53;26.52;;;12.93;;
5416;SDS011;2731;50.754;12.990;2023-03-01T00:23:20;24.92;;;11.73;;
5416;SDS011;2731;50.754;12.990;2023-03-01T00:25:48;24.23;;;11.88;;
5416;SDS011;2731;50.754;12.990;2023-03-01T00:28:16;27.98;;;12.65;;
5416;SDS011;2731;50.754;12.990;2023-03-01T00:30:43;27.20;;;12.23;;
5416;SDS011;2731;50.754;12.990;2023-03-01T00:33:10;27.30;;;13.25;;
5416;SDS011;2731;50.754;12.990;2023-03-01T00:35:37;30.52;;;13.40;;
5416;SDS011;2731;50.754;12.990;2023-03-01T00:38:06;32.10;;;14.98;;
5416;SDS011;2731;50.754;12.990;2023-03-01T00:40:34;27.95;;;12.63;;
5416;SDS011;2731;50.754;12.990;2023-03-01T00:43:02;26.48;;;13.10;;
5416;SDS011;2731;50.754;12.990;2023-03-01T00:45:32;27.73;;;13.85;;
5416;SDS011;2731;50.754;12.990;2023-03-01T00:47:58;26.27;;;13.25;;
5416;SDS011;2731;50.754;12.990;2023-03-01T00:50:27;25.83;;;12.35;;
5416;SDS011;2731;50.754;12.990;2023-03-01T00:52:55;28.17;;;14.88;;
5416;SDS011;2731;50.754;12.990;2023-03-01T00:55:22;26.60;;;13.15;;
5416;SDS011;2731;50.754;12.990;2023-03-01T00:57:50;25.55;;;12.93;;
5416;SDS011;2731;50.754;12.990;2023-03-01T01:00:19;22.98;;;11.98;;
5416;SDS011;2731;50.754;12.990;2023-03-01T01:02:48;28.48;;;14.13;;
5416;SDS011;2731;50.754;12.990;2023-03-01T01:05:17;25.10;;;12.65;;
5416;SDS011;2731;50.754;12.990;2023-03-01T01:07:46;29.88;;;14.15;;
5416;SDS011;2731;50.754;12.990;2023-03-01T01:10:14;25.48;;;12.50;;
5416;SDS011;2731;50.754;12.990;2023-03-01T01:12:44;23.17;;;11.77;;
5416;SDS011;2731;50.754;12.990;2023-03-01T01:15:10;25.10;;;13.20;;
5416;SDS011;2731;50.754;12.990;2023-03-01T01:17:40;26.75;;;13.32;;
5416;SDS011;2731;50.754;12.990;2023-03-01T01:20:09;24.85;;;12.18;;
5416;SDS011;2731;50.754;12.990;2023-03-01T01:22:36;24.95;;;11.88;;
5416;SDS011;2731;50.754;12.990;2023-03-01T01:25:07;29.17;;;14.32;;
5416;SDS011;2731;50.754;12.990;2023-03-01T01:27:34;23.65;;;12.65;;
5416;SDS011;2731;50.754;12.990;2023-03-01T01:30:00;27.13;;;12.70;;
5416;SDS011;2731;50.754;12.990;2023-03-01T01:32:28;29.05;;;13.90;;
5416;SDS011;2731;50.754;12.990;2023-03-01T01:34:57;28.58;;;12.63;;
5416;SDS011;2731;50.754;12.990;2023-03-01T01:37:26;26.95;;;13.43;;
5416;SDS011;2731;50.754;12.990;2023-03-01T01:39:59;27.77;;;14.37;;
5416;SDS011;2731;50.754;12.990;2023-03-01T01:42:28;31.30;;;13.77;;
5416;SDS011;2731;50.754;12.990;2023-03-01T01:47:42;24.75;;;12.90;;
5416;SDS011;2731;50.754;12.990;2023-03-01T01:50:23;29.30;;;14.55;;
5416;SDS011;2731;50.754;12.990;2023-03-01T01:52:50;28.10;;;13.05;;
5416;SDS011;2731;50.754;12.990;2023-03-01T01:55:20;29.40;;;12.90;;
5416;SDS011;2731;50.754;12.990;2023-03-01T01:57:48;25.67;;;13.30;;
5416;SDS011;2731;50.754;12.990;2023-03-01T02:00:18;23.80;;;12.20;;
5416;SDS011;2731;50.754;12.990;2023-03-01T02:02:50;27.63;;;13.23;;
5416;SDS011;2731;50.754;12.990;2023-03-01T02:07:58;29.17;;;13.60;;
5416;SDS011;2731;50.754;12.990;2023-03-01T02:10:26;28.77;;;13.60;;
5416;SDS011;2731;50.754;12.990;2023-03-01T02:12:54;29.55;;;13.93;;
5416;SDS011;2731;50.754;12.990;2023-03-01T02:15:23;26.77;;;13.48;;
5416;SDS011;2731;50.754;12.990;2023-03-01T02:17:52;24.55;;;12.85;;
5416;SDS011;2731;50.754;12.990;2023-03-01T02:20:42;29.05;;;12.43;;
5416;SDS011;2731;50.754;12.990;2023-03-01T02:23:11;29.05;;;12.50;;
5416;SDS011;2731;50.754;12.990;2023-03-01T02:30:42;29.13;;;14.75;;
5416;SDS011;2731;50.754;12.990;2023-03-01T02:33:38;31.40;;;14.40;;
5416;SDS011;2731;50.754;12.990;2023-03-01T02:36:09;24.48;;;13.13;;
5416;SDS011;2731;50.754;12.990;2023-03-01T02:38:40;30.70;;;14.60;;
5416;SDS011;2731;50.754;12.990;2023-03-01T02:41:07;26.08;;;12.70;;
5416;SDS011;2731;50.754;12.990;2023-03-01T02:43:36;24.90;;;12.20;;
5416;SDS011;2731;50.754;12.990;2023-03-01T02:46:08;25.08;;;12.07;;
5416;SDS011;2731;50.754;12.990;2023-03-01T02:48:42;25.90;;;12.00;;
5416;SDS011;2731;50.754;12.990;2023-03-01T02:56:45;27.67;;;13.63;;
5416;SDS011;2731;50.754;12.990;2023-03-01T02:59:16;31.52;;;15.30;;
5416;SDS011;2731;50.754;12.990;2023-03-01T03:01:43;28.77;;;12.95;;
5416;SDS011;2731;50.754;12.990;2023-03-01T03:04:14;27.10;;;12.57;;
5416;SDS011;2731;50.754;12.990;2023-03-01T03:06:47;28.60;;;14.27;;
5416;SDS011;2731;50.754;12.990;2023-03-01T03:09:16;27.73;;;13.13;;
5416;SDS011;2731;50.754;12.990;2023-03-01T03:11:43;29.48;;;13.23;;
5416;SDS011;2731;50.754;12.990;2023-03-01T03:14:10;26.25;;;12.82;;
5416;SDS011;2731;50.754;12.990;2023-03-01T03:16:41;28.25;;;12.90;;
5416;SDS011;2731;50.754;12.990;2023-03-01T03:19:09;29.35;;;13.20;;
5416;SDS011;2731;50.754;12.990;2023-03-01T03:21:36;30.23;;;13.35;;
5416;SDS011;2731;50.754;12.990;2023-03-01T03:24:04;23.10;;;11.55;;
5416;SDS011;2731;50.754;12.990;2023-03-01T03:26:34;24.23;;;12.00;;
5416;SDS011;2731;50.754;12.990;2023-03-01T03:29:02;31.90;;;13.05;;
5416;SDS011;2731;50.754;12.990;2023-03-01T03:31:30;33.40;;;13.80;;
5416;SDS011;2731;50.754;12.990;2023-03-01T03:33:58;30.58;;;14.95;;
5416;SDS011;2731;50.754;12.990;2023-03-01T03:36:24;24.85;;;11.98;;
5416;SDS011;2731;50.754;12.990;2023-03-01T03:38:51;22.73;;;11.82;;
5416;SDS011;2731;50.754;12.990;2023-03-01T03:41:18;24.52;;;11.93;;
5416;SDS011;2731;50.754;12.990;2023-03-01T03:43:45;26.73;;;12.40;;
5416;SDS011;2731;50.754;12.990;2023-03-01T03:46:17;30.20;;;13.15;;
5416;SDS011;2731;50.754;12.990;2023-03-01T03:48:44;27.67;;;12.30;;
5416;SDS011;2731;50.754;12.990;2023-03-01T03:51:16;25.38;;;12.07;;
5416;SDS011;2731;50.754;12.990;2023-03-01T03:53:43;26.73;;;12.50;;
5416;SDS011;2731;50.754;12.990;2023-03-01T03:56:11;28.35;;;12.63;;
5416;SDS011;2731;50.754;12.990;2023-03-01T03:58:40;28.27;;;12.50;;
5416;SDS011;2731;50.754;12.990;2023-03-01T04:01:07;29.67;;;13.40;;
5416;SDS011;2731;50.754;12.990;2023-03-01T04:03:33;26.27;;;13.13;;
5416;SDS011;2731;50.754;12.990;2023-03-01T04:06:00;24.02;;;12.18;;
5416;SDS011;2731;50.754;12.990;2023-03-01T04:08:32;23.42;;;12.50;;
5416;SDS011;2731;50.754;12.990;2023-03-01T04:11:03;29.40;;;12.73;;
5416;SDS011;2731;50.754;12.990;2023-03-01T04:13:50;27.48;;;11.90;;
5416;SDS011;2731;50.754;12.990;2023-03-01T04:16:16;28.83;;;12.98;;
5416;SDS011;2731;50.754;12.990;2023-03-01T04:18:45;27.10;;;12.95;;
5416;SDS011;2731;50.754;12.990;2023-03-01T04:21:11;28.05;;;14.05;;
5416;SDS011;2731;50.754;12.990;2023-03-01T04:23:43;38.05;;;16.10;;
5416;SDS011;2731;50.754;12.990;2023-03-01T04:26:09;34.88;;;15.25;;
5416;SDS011;2731;50.754;12.990;2023-03-01T04:28:37;33.45;;;14.88;;
5416;SDS011;2731;50.754;12.990;2023-03-01T04:31:06;28.60;;;13.75;;
5416;SDS011;2731;50.754;12.990;2023-03-01T04:33:43;31.95;;;14.38;;
5416;SDS011;2731;50.754;12.990;2023-03-01T04:36:13;28.40;;;12.68;;
5416;SDS011;2731;50.754;12.990;2023-03-01T04:38:42;25.45;;;13.50;;
5416;SDS011;2731;50.754;12.990;2023-03-01T04:41:13;25.67;;;12.00;;
5416;SDS011;2731;50.754;12.990;2023-03-01T04:43:40;28.27;;;12.95;;
5416;SDS011;2731;50.754;12.990;2023-03-01T04:46:08;26.02;;;12.23;;
5416;SDS011;2731;50.754;12.990;2023-03-01T04:48:38;30.67;;;13.18;;
5416;SDS011;2731;50.754;12.990;2023-03-01T04:51:05;26.17;;;12.02;;
5416;SDS011;2731;50.754;12.990;2023-03-01T04:53:42;28.38;;;13.07;;
5416;SDS011;2731;50.754;12.990;2023-03-01T04:56:09;25.63;;;13.13;;
5416;SDS011;2731;50.754;12.990;2023-03-01T04:58:38;28.55;;;14.30;;
5416;SDS011;2731;50.754;12.990;2023-03-01T05:01:10;32.45;;;15.43;;
5416;SDS011;2731;50.754;12.990;2023-03-01T05:03:41;29.48;;;12.25;;
5416;SDS011;2731;50.754;12.990;2023-03-01T05:06:10;29.13;;;12.95;;
5416;SDS011;2731;50.754;12.990;2023-03-01T05:08:37;30.10;;;14.63;;
5416;SDS011;2731;50.754;12.990;2023-03-01T05:11:06;29.50;;;13.70;;
5416;SDS011;2731;50.754;12.990;2023-03-01T05:13:36;28.85;;;12.80;;
5416;SDS011;2731;50.754;12.990;2023-03-01T05:16:04;30.48;;;13.93;;
5416;SDS011;2731;50.754;12.990;2023-03-01T05:18:35;35.28;;;14.75;;
5416;SDS011;2731;50.754;12.990;2023-03-01T05:21:08;27.35;;;13.32;;
5416;SDS011;2731;50.754;12.990;2023-03-01T05:23:36;33.42;;;13.95;;
5416;SDS011;2731;50.754;12.990;2023-03-01T05:26:06;33.50;;;14.82;;
5416;SDS011;2731;50.754;12.990;2023-03-01T05:28:35;32.08;;;15.13;;
5416;SDS011;2731;50.754;12.990;2023-03-01T05:31:03;32.85;;;14.75;;
5416;SDS011;2731;50.754;12.990;2023-03-01T05:33:44;32.30;;;15.15;;
5416;SDS011;2731;50.754;12.990;2023-03-01T05:36:13;31.38;;;13.20;;
5416;SDS011;2731;50.754;12.990;2023-03-01T05:38:39;33.92;;;15.00;;
5416;SDS011;2731;50.754;12.990;2023-03-01T05:41:12;33.47;;;15.57;;
5416;SDS011;2731;50.754;12.990;2023-03-01T05:43:40;28.60;;;13.93;;
5416;SDS011;2731;50.754;12.990;2023-03-01T05:46:10;30.55;;;13.43;;
5416;SDS011;2731;50.754;12.990;2023-03-01T05:48:41;33.72;;;13.30;;
5416;SDS011;2731;50.754;12.990;2023-03-01T05:51:08;29.67;;;13.52;;
5416;SDS011;2731;50.754;12.990;2023-03-01T05:53:41;35.10;;;16.13;;
5416;SDS011;2731;50.754;12.990;2023-03-01T05:56:09;63.90;;;27.92;;
5416;SDS011;2731;50.754;12.990;2023-03-01T05:58:37;65.35;;;29.90;;
5416;SDS011;2731;50.754;12.990;2023-03-01T06:01:05;55.58;;;23.73;;
5416;SDS011;2731;50.754;12.990;2023-03-01T06:03:34;43.65;;;20.00;;
5416;SDS011;2731;50.754;12.990;2023-03-01T06:06:02;37.97;;;17.27;;
5416;SDS011;2731;50.754;12.990;2023-03-01T06:08:31;38.88;;;16.60;;
5416;SDS011;2731;50.754;12.990;2023-03-01T06:10:59;37.80;;;15.93;;
5416;SDS011;2731;50.754;12.990;2023-03-01T06:13:25;28.52;;;14.73;;
5416;SDS011;2731;50.754;12.990;2023-03-01T06:15:52;38.05;;;15.68;;
5416;SDS011;2731;50.754;12.990;2023-03-01T06:18:19;34.10;;;14.32;;
5416;SDS011;2731;50.754;12.990;2023-03-01T06:20:52;35.92;;;16.30;;
5416;SDS011;2731;50.754;12.990;2023-03-01T06:23:21;30.35;;;13.75;;
5416;SDS011;2731;50.754;12.990;2023-03-01T06:25:48;39.08;;;16.13;;
5416;SDS011;2731;50.754;12.990;2023-03-01T06:28:17;24.10;;;12.63;;
5416;SDS011;2731;50.754;12.990;2023-03-01T06:30:46;28.98;;;14.00;;
5416;SDS011;2731;50.754;12.990;2023-03-01T06:33:15;34.13;;;14.98;;
5416;SDS011;2731;50.754;12.990;2023-03-01T06:35:41;37.83;;;14.95;;
5416;SDS011;2731;50.754;12.990;2023-03-01T06:38:10;33.67;;;14.40;;
5416;SDS011;2731;50.754;12.990;2023-03-01T06:40:37;33.67;;;14.57;;
5416;SDS011;2731;50.754;12.990;2023-03-01T06:43:06;32.30;;;15.63;;
5416;SDS011;2731;50.754;12.990;2023-03-01T06:45:33;37.60;;;16.27;;
5416;SDS011;2731;50.754;12.990;2023-03-01T06:48:04;36.50;;;16.08;;
5416;SDS011;2731;50.754;12.990;2023-03-01T06:50:31;35.65;;;16.05;;
5416;SDS011;2731;50.754;12.990;2023-03-01T06:53:00;35.83;;;15.30;;
5416;SDS011;2731;50.754;12.990;2023-03-01T06:55:31;27.58;;;13.38;;
5416;SDS011;2731;50.754;12.990;2023-03-01T06:58:00;32.65;;;15.85;;
5416;SDS011;2731;50.754;12.990;2023-03-01T07:00:26;31.70;;;15.32;;
5416;SDS011;2731;50.754;12.990;2023-03-01T07:02:53;30.83;;;14.65;;
5416;SDS011;2731;50.754;12.990;2023-03-01T07:05:20;31.92;;;14.80;;
5416;SDS011;2731;50.754;12.990;2023-03-01T07:07:46;33.42;;;14.63;;
5416;SDS011;2731;50.754;12.990;2023-03-01T07:10:15;32.42;;;16.02;;
5416;SDS011;2731;50.754;12.990;2023-03-01T07:12:44;33.75;;;14.45;;
5416;SDS011;2731;50.754;12.990;2023-03-01T07:15:12;29.13;;;13.23;;
5416;SDS011;2731;50.754;12.990;2023-03-01T07:17:41;27.48;;;13.45;;
5416;SDS011;2731;50.754;12.990;2023-03-01T07:20:11;29.90;;;14.00;;
5416;SDS011;2731;50.754;12.990;2023-03-01T07:22:41;32.42;;;15.27;;
5416;SDS011;2731;50.754;12.990;2023-03-01T07:25:09;26.30;;;12.32;;
5416;SDS011;2731;50.754;12.990;2023-03-01T07:27:37;29.73;;;13.40;;
5416;SDS011;2731;50.754;12.990;2023-03-01T07:30:05;32.20;;;13.82;;
5416;SDS011;2731;50.754;12.990;2023-03-01T07:32:33;35.35;;;14.85;;
5416;SDS011;2731;50.754;12.990;2023-03-01T07:35:21;28.45;;;14.10;;
5416;SDS011;2731;50.754;12.990;2023-03-01T07:37:50;30.52;;;14.40;;
5416;SDS011;2731;50.754;12.990;2023-03-01T07:40:16;32.90;;;14.38;;
5416;SDS011;2731;50.754;12.990;2023-03-01T07:42:45;29.63;;;13.00;;
5416;SDS011;2731;50.754;12.990;2023-03-01T07:45:12;30.10;;;15.35;;
5416;SDS011;2731;50.754;12.990;2023-03-01T07:47:42;28.15;;;13.00;;
5416;SDS011;2731;50.754;12.990;2023-03-01T07:52:40;27.70;;;13.82;;
5416;SDS011;2731;50.754;12.990;2023-03-01T07:55:09;29.33;;;13.90;;
5416;SDS011;2731;50.754;12.990;2023-03-01T07:57:35;32.45;;;15.85;;
5416;SDS011;2731;50.754;12.990;2023-03-01T08:00:02;32.72;;;16.00;;
5416;SDS011;2731;50.754;12.990;2023-03-01T08:02:28;30.10;;;14.25;;
5416;SDS011;2731;50.754;12.990;2023-03-01T08:04:57;29.40;;;13.50;;
5416;SDS011;2731;50.754;12.990;2023-03-01T08:07:25;28.80;;;13.38;;
5416;SDS011;2731;50.754;12.990;2023-03-01T08:09:53;33.55;;;15.55;;
5416;SDS011;2731;50.754;12.990;2023-03-01T08:12:20;32.92;;;14.25;;
5416;SDS011;2731;50.754;12.990;2023-03-01T08:14:51;28.92;;;14.73;;
5416;SDS011;2731;50.754;12.990;2023-03-01T08:17:20;28.67;;;15.40;;
5416;SDS011;2731;50.754;12.990;2023-03-01T08:19:47;33.13;;;17.50;;
5416;SDS011;2731;50.754;12.990;2023-03-01T08:22:14;30.75;;;15.38;;
5416;SDS011;2731;50.754;12.990;2023-03-01T08:24:42;33.00;;;16.40;;
5416;SDS011;2731;50.754;12.990;2023-03-01T08:27:09;31.95;;;16.15;;
5416;SDS011;2731;50.754;12.990;2023-03-01T08:29:37;33.38;;;17.02;;
5416;SDS011;2731;50.754;12.990;2023-03-01T08:32:04;33.30;;;15.82;;
5416;SDS011;2731;50.754;12.990;2023-03-01T08:34:33;34.05;;;15.98;;
5416;SDS011;2731;50.754;12.990;2023-03-01T08:37:00;29.92;;;14.68;;
5416;SDS011;2731;50.754;12.990;2023-03-01T08:39:28;25.83;;;14.10;;
5416;SDS011;2731;50.754;12.990;2023-03-01T08:41:57;28.42;;;15.30;;
5416;SDS011;2731;50.754;12.990;2023-03-01T08:44:24;30.23;;;15.07;;
5416;SDS011;2731;50.754;12.990;2023-03-01T08:46:51;38.08;;;17.60;;
5416;SDS011;2731;50.754;12.990;2023-03-01T08:49:23;32.05;;;15.63;;
5416;SDS011;2731;50.754;12.990;2023-03-01T08:52:01;32.60;;;15.35;;
5416;SDS011;2731;50.754;12.990;2023-03-01T08:54:31;30.50;;;14.60;;
5416;SDS011;2731;50.754;12.990;2023-03-01T08:57:01;34.28;;;15.75;;
5416;SDS011;2731;50.754;12.990;2023-03-01T08:59:30;30.05;;;15.05;;
5416;SDS011;2731;50.754;12.990;2023-03-01T09:02:04;28.48;;;15.48;;
5416;SDS011;2731;50.754;12.990;2023-03-01T09:04:40;30.65;;;15.63;;
5416;SDS011;2731;50.754;12.990;2023-03-01T09:07:09;27.60;;;14.73;;
5416;SDS011;2731;50.754;12.990;2023-03-01T09:09:37;32.08;;;16.63;;
5416;SDS011;2731;50.754;12.990;2023-03-01T09:12:05;24.50;;;13.23;;
5416;SDS011;2731;50.754;12.990;2023-03-01T09:14:32;24.23;;;13.00;;
5416;SDS011;2731;50.754;12.990;2023-03-01T09:16:59;24.88;;;12.88;;
5416;SDS011;2731;50.754;12.990;2023-03-01T09:19:49;26.38;;;12.88;;
5416;SDS011;2731;50.754;12.990;2023-03-01T09:22:18;21.95;;;12.18;;
5416;SDS011;2731;50.754;12.990;2023-03-01T09:24:44;25.17;;;13.77;;
5416;SDS011;2731;50.754;12.990;2023-03-01T09:27:11;24.13;;;13.25;;
5416;SDS011;2731;50.754;12.990;2023-03-01T09:29:40;23.45;;;12.20;;
5416;SDS011;2731;50.754;12.990;2023-03-01T09:32:06;22.33;;;11.68;;
5416;SDS011;2731;50.754;12.990;2023-03-01T09:34:34;21.50;;;13.10;;
5416;SDS011;2731;50.754;12.990;2023-03-01T09:37:21;24.13;;;12.02;;
5416;SDS011;2731;50.754;12.990;2023-03-01T09:39:49;20.45;;;12.57;;
5416;SDS011;2731;50.754;12.990;2023-03-01T09:42:16;27.23;;;11.52;;
5416;SDS011;2731;50.754;12.990;2023-03-01T09:44:58;22.48;;;12.40;;
5416;SDS011;2731;50.754;12.990;2023-03-01T09:47:29;19.00;;;12.35;;
5416;SDS011;2731;50.754;12.990;2023-03-01T09:50:19;23.70;;;13.15;;
5416;SDS011;2731;50.754;12.990;2023-03-01T09:53:07;24.13;;;13.00;;
5416;SDS011;2731;50.754;12.990;2023-03-01T09:55:40;25.25;;;13.27;;
5416;SDS011;2731;50.754;12.990;2023-03-01T10:00:56;26.67;;;14.13;;
5416;SDS011;2731;50.754;12.990;2023-03-01T10:03:26;27.35;;;14.43;;
5416;SDS011;2731;50.754;12.990;2023-03-01T10:05:59;25.23;;;14.32;;
5416;SDS011;2731;50.754;12.990;2023-03-01T10:19:24;23.48;;;13.73;;
5416;SDS011;2731;50.754;12.990;2023-03-01T10:21:53;28.38;;;16.05;;
5416;SDS011;2731;50.754;12.990;2023-03-01T10:24:20;33.10;;;15.70;;
5416;SDS011;2731;50.754;12.990;2023-03-01T10:26:53;23.05;;;13.90;;
5416;SDS011;2731;50.754;12.990;2023-03-01T10:29:27;23.60;;;13.88;;
5416;SDS011;2731;50.754;12.990;2023-03-01T10:31:57;22.30;;;12.85;;
5416;SDS011;2731;50.754;12.990;2023-03-01T10:34:27;29.02;;;15.48;;
5416;SDS011;2731;50.754;12.990;2023-03-01T10:36:56;23.05;;;13.25;;
5416;SDS011;2731;50.754;12.990;2023-03-01T14:58:18;14.80;;;11.70;;
5416;SDS011;2731;50.754;12.990;2023-03-01T15:00:52;19.48;;;13.77;;
5416;SDS011;2731;50.754;12.990;2023-03-01T15:03:43;17.92;;;13.82;;
5416;SDS011;2731;50.754;12.990;2023-03-01T15:06:14;19.83;;;12.32;;
5416;SDS011;2731;50.754;12.990;2023-03-01T15:08:50;16.92;;;11.75;;
5416;SDS011;2731;50.754;12.990;2023-03-01T15:11:27;14.65;;;11.52;;
5416;SDS011;2731;50.754;12.990;2023-03-01T15:13:54;15.10;;;12.23;;
5416;SDS011;2731;50.754;12.990;2023-03-01T15:16:33;14.23;;;11.32;;
5416;SDS011;2731;50.754;12.990;2023-03-01T15:19:04;12.95;;;10.52;;
5416;SDS011;2731;50.754;12.990;2023-03-01T15:21:36;15.27;;;12.43;;
5416;SDS011;2731;50.754;12.990;2023-03-01T15:26:59;14.23;;;11.50;;
5416;SDS011;2731;50.754;12.990;2023-03-01T15:29:32;18.75;;;12.07;;
5416;SDS011;2731;50.754;12.990;2023-03-01T15:34:50;15.07;;;11.00;;
5416;SDS011;2731;50.754;12.990;2023-03-01T15:40:26;12.63;;;11.13;;
5416;SDS011;2731;50.754;12.990;2023-03-01T15:43:05;15.50;;;11.20;;
5416;SDS011;2731;50.754;12.990;2023-03-01T15:45:41;16.67;;;11.57;;
5416;SDS011;2731;50.754;12.990;2023-03-01T15:48:15;12.90;;;9.95;;
5416;SDS011;2731;50.754;12.990;2023-03-01T15:50:43;15.30;;;11.60;;
5416;SDS011;2731;50.754;12.990;2023-03-01T15:53:12;13.48;;;11.00;;
5416;SDS011;2731;50.754;12.990;2023-03-01T15:55:39;14.77;;;10.90;;
5416;SDS011;2731;50.754;12.990;2023-03-01T15:58:12;16.95;;;11.20;;
5416;SDS011;2731;50.754;12.990;2023-03-01T16:00:41;15.23;;;10.95;;
5416;SDS011;2731;50.754;12.990;2023-03-01T16:03:09;13.35;;;10.65;;
5416;SDS011;2731;50.754;12.990;2023-03-01T16:05:38;15.20;;;10.32;;
5416;SDS011;2731;50.754;12.990;2023-03-01T16:08:07;15.88;;;12.38;;
5416;SDS011;2731;50.754;12.990;2023-03-01T16:10:34;14.80;;;11.52;;
5416;SDS011;2731;50.754;12.990;2023-03-01T16:13:05;14.32;;;10.85;;
5416;SDS011;2731;50.754;12.990;2023-03-01T16:15:33;18.50;;;13.23;;
5416;SDS011;2731;50.754;12.990;2023-03-01T16:18:02;17.23;;;12.32;;
5416;SDS011;2731;50.754;12.990;2023-03-01T16:20:29;22.02;;;14.73;;
5416;SDS011;2731;50.754;12.990;2023-03-01T16:22:58;18.48;;;13.32;;
5416;SDS011;2731;50.754;12.990;2023-03-01T16:25:29;18.38;;;13.88;;
5416;SDS011;2731;50.754;12.990;2023-03-01T16:27:58;23.70;;;14.60;;
5416;SDS011;2731;50.754;12.990;2023-03-01T16:30:30;19.55;;;13.43;;
5416;SDS011;2731;50.754;12.990;2023-03-01T16:32:56;22.25;;;13.02;;
5416;SDS011;2731;50.754;12.990;2023-03-01T16:35:24;24.17;;;14.98;;
5416;SDS011;2731;50.754;12.990;2023-03-01T16:37:50;23.58;;;13.85;;
5416;SDS011;2731;50.754;12.990;2023-03-01T16:40:28;20.00;;;13.20;;
5416;SDS011;2731;50.754;12.990;2023-03-01T16:42:56;21.55;;;13.15;;
5416;SDS011;2731;50.754;12.990;2023-03-01T16:45:33;28.25;;;16.85;;
5416;SDS011;2731;50.754;12.990;2023-03-01T16:48:02;24.40;;;14.23;;
5416;SDS011;2731;50.754;12.990;2023-03-01T16:50:32;28.25;;;15.32;;
5416;SDS011;2731;50.754;12.990;2023-03-01T16:52:59;24.40;;;14.80;;
5416;SDS011;2731;50.754;12.990;2023-03-01T16:55:25;26.58;;;14.80;;
5416;SDS011;2731;50.754;12.990;2023-03-01T16:57:52;25.70;;;14.13;;
5416;SDS011;2731;50.754;12.990;2023-03-01T17:00:20;28.13;;;14.68;;
5416;SDS011;2731;50.754;12.990;2023-03-01T17:02:49;28.98;;;15.77;;
5416;SDS011;2731;50.754;12.990;2023-03-01T17:05:19;31.95;;;15.75;;
5416;SDS011;2731;50.754;12.990;2023-03-01T17:07:50;29.35;;;16.75;;
5416;SDS011;2731;50.754;12.990;2023-03-01T17:10:18;37.35;;;19.88;;
5416;SDS011;2731;50.754;12.990;2023-03-01T17:12:47;42.65;;;20.75;;
5416;SDS011;2731;50.754;12.990;2023-03-01T17:15:44;39.55;;;21.85;;
5416;SDS011;2731;50.754;12.990;2023-03-01T17:18:12;32.63;;;17.75;;
5416;SDS011;2731;50.754;12.990;2023-03-01T17:20:39;32.85;;;16.98;;
5416;SDS011;2731;50.754;12.990;2023-03-01T17:23:07;36.08;;;18.05;;
5416;SDS011;2731;50.754;12.990;2023-03-01T17:25:35;31.98;;;17.05;;
5416;SDS011;2731;50.754;12.990;2023-03-01T17:28:04;29.38;;;16.92;;
5416;SDS011;2731;50.754;12.990;2023-03-01T17:30:31;32.67;;;17.40;;
5416;SDS011;2731;50.754;12.990;2023-03-01T17:32:59;31.42;;;16.90;;
5416;SDS011;2731;50.754;12.990;2023-03-01T17:35:26;29.80;;;16.00;;
5416;SDS011;2731;50.754;12.990;2023-03-01T17:37:53;33.33;;;17.88;;
5416;SDS011;2731;50.754;12.990;2023-03-01T17:40:22;36.08;;;17.73;;
5416;SDS011;2731;50.754;12.990;2023-03-01T17:42:49;35.10;;;18.15;;
5416;SDS011;2731;50.754;12.990;2023-03-01T17:45:16;34.50;;;17.15;;
5416;SDS011;2731;50.754;12.990;2023-03-01T17:47:43;25.08;;;14.48;;
5416;SDS011;2731;50.754;12.990;2023-03-01T17:50:10;31.67;;;17.30;;
5416;SDS011;2731;50.754;12.990;2023-03-01T17:52:39;35.88;;;17.25;;
5416;SDS011;2731;50.754;12.990;2023-03-01T17:55:09;30.33;;;16.08;;
5416;SDS011;2731;50.754;12.990;2023-03-01T17:57:39;32.65;;;16.30;;
5416;SDS011;2731;50.754;12.990;2023-03-01T18:00:11;30.13;;;17.13;;
5416;SDS011;2731;50.754;12.990;2023-03-01T18:02:39;35.58;;;18.45;;
5416;SDS011;2731;50.754;12.990;2023-03-01T18:05:07;30.52;;;17.35;;
5416;SDS011;2731;50.754;12.990;2023-03-01T18:07:34;32.83;;;18.60;;
5416;SDS011;2731;50.754;12.990;2023-03-01T18:10:00;36.33;;;18.90;;
5416;SDS011;2731;50.754;12.990;2023-03-01T18:12:27;44.35;;;23.17;;
5416;SDS011;2731;50.754;12.990;2023-03-01T18:14:55;59.75;;;26.55;;
5416;SDS011;2731;50.754;12.990;2023-03-01T18:17:22;48.88;;;24.25;;
5416;SDS011;2731;50.754;12.990;2023-03-01T18:19:53;40.80;;;21.35;;
5416;SDS011;2731;50.754;12.990;2023-03-01T18:22:22;38.20;;;18.75;;
5416;SDS011;2731;50.754;12.990;2023-03-01T18:24:54;38.15;;;18.27;;
5416;SDS011;2731;50.754;12.990;2023-03-01T18:27:23;35.72;;;18.17;;
5416;SDS011;2731;50.754;12.990;2023-03-01T18:29:50;32.72;;;17.73;;
5416;SDS011;2731;50.754;12.990;2023-03-01T18:32:18;32.03;;;16.33;;
5416;SDS011;2731;50.754;12.990;2023-03-01T18:35:10;36.80;;;17.45;;
5416;SDS011;2731;50.754;12.990;2023-03-01T18:37:42;34.13;;;16.58;;
5416;SDS011;2731;50.754;12.990;2023-03-01T18:40:09;33.10;;;16.73;;
5416;SDS011;2731;50.754;12.990;2023-03-01T18:42:39;29.98;;;15.70;;
5416;SDS011;2731;50.754;12.990;2023-03-01T18:45:05;31.85;;;15.68;;
5416;SDS011;2731;50.754;12.990;2023-03-01T18:47:33;29.63;;;15.70;;
5416;SDS011;2731;50.754;12.990;2023-03-01T18:50:01;34.70;;;18.10;;
5416;SDS011;2731;50.754;12.990;2023-03-01T18:52:32;43.67;;;20.55;;
5416;SDS011;2731;50.754;12.990;2023-03-01T18:55:00;39.15;;;20.40;;
5416;SDS011;2731;50.754;12.990;2023-03-01T18:57:29;33.50;;;16.60;;
5416;SDS011;2731;50.754;12.990;2023-03-01T18:59:56;32.90;;;15.55;;
5416;SDS011;2731;50.754;12.990;2023-03-01T19:02:24;32.13;;;15.85;;
5416;SDS011;2731;50.754;12.990;2023-03-01T19:04:52;31.15;;;15.73;;
5416;SDS011;2731;50.754;12.990;2023-03-01T19:07:20;31.10;;;16.63;;
5416;SDS011;2731;50.754;12.990;2023-03-01T19:09:46;30.13;;;16.92;;
5416;SDS011;2731;50.754;12.990;2023-03-01T19:12:16;35.92;;;15.30;;
5416;SDS011;2731;50.754;12.990;2023-03-01T19:14:42;33.97;;;15.52;;
5416;SDS011;2731;50.754;12.990;2023-03-01T19:17:08;27.88;;;13.70;;
5416;SDS011;2731;50.754;12.990;2023-03-01T19:19:35;27.80;;;14.75;;
5416;SDS011;2731;50.754;12.990;2023-03-01T19:22:07;26.13;;;13.48;;
5416;SDS011;2731;50.754;12.990;2023-03-01T19:24:35;28.30;;;13.57;;
5416;SDS011;2731;50.754;12.990;2023-03-01T19:27:03;31.10;;;15.32;;
5416;SDS011;2731;50.754;12.990;2023-03-01T19:29:30;31.02;;;14.85;;
5416;SDS011;2731;50.754;12.990;2023-03-01T19:31:56;30.23;;;15.57;;
5416;SDS011;2731;50.754;12.990;2023-03-01T19:34:24;31.33;;;13.45;;
5416;SDS011;2731;50.754;12.990;2023-03-01T19:36:53;28.52;;;14.38;;
5416;SDS011;2731;50.754;12.990;2023-03-01T19:39:21;31.08;;;14.77;;
5416;SDS011;2731;50.754;12.990;2023-03-01T19:41:50;28.95;;;14.68;;
5416;SDS011;2731;50.754;12.990;2023-03-01T19:44:19;31.73;;;14.45;;
5416;SDS011;2731;50.754;12.990;2023-03-01T19:47:07;32.25;;;17.23;;